createdAt,value
2019-05-03T00:01:42.206Z,8.66
2019-05-03T00:04:14.582Z,8.65
2019-05-03T00:06:47.456Z,8.78
2019-05-03T00:09:19.764Z,8.69
2019-05-03T00:11:52.867Z,8.85
2019-05-03T00:14:24.931Z,8.81
2019-05-03T00:16:56.654Z,8.68
2019-05-03T00:19:28.708Z,8.95
2019-05-03T00:22:02.089Z,8.70
2019-05-03T00:24:34.045Z,8.69
2019-05-03T00:27:05.541Z,8.64
2019-05-03T00:29:37.098Z,8.64
2019-05-03T00:32:08.907Z,8.56
2019-05-03T00:34:46.462Z,8.70
2019-05-03T00:37:19.438Z,8.65
2019-05-03T00:39:58.862Z,8.70
2019-05-03T00:42:31.762Z,8.62
2019-05-03T00:45:04.840Z,8.73
2019-05-03T00:47:36.561Z,8.66
2019-05-03T00:50:09.095Z,8.63
2019-05-03T00:52:42.363Z,8.69
2019-05-03T00:55:18.520Z,8.68
2019-05-03T00:57:49.095Z,8.66
2019-05-03T01:00:21.823Z,8.65
2019-05-03T01:02:53.858Z,8.53
2019-05-03T01:05:25.904Z,8.42
2019-05-03T01:07:58.171Z,8.11
2019-05-03T01:10:30.462Z,8.26
2019-05-03T01:13:01.948Z,8.25
2019-05-03T01:16:07.563Z,8.19
2019-05-03T01:18:41.288Z,8.23
2019-05-03T01:21:13.515Z,8.16
2019-05-03T01:23:45.604Z,8.25
2019-05-03T01:26:17.155Z,8.20
2019-05-03T01:28:48.893Z,8.24
2019-05-03T01:31:22.862Z,8.21
2019-05-03T01:33:54.576Z,8.15
2019-05-03T01:36:26.694Z,8.12
2019-05-03T01:38:59.137Z,8.11
2019-05-03T01:41:32.367Z,8.04
2019-05-03T01:44:04.258Z,8.00
2019-05-03T01:46:36.412Z,7.96
2019-05-03T01:49:28.990Z,7.86
2019-05-03T01:52:25.720Z,7.87
2019-05-03T01:54:59.370Z,7.99
2019-05-03T01:57:32.443Z,7.90
2019-05-03T02:00:04.983Z,8.12
2019-05-03T02:02:48.091Z,7.97
2019-05-03T02:05:40.025Z,8.13
2019-05-03T02:08:13.757Z,7.95
2019-05-03T02:10:45.172Z,8.10
2019-05-03T02:13:17.037Z,8.00
2019-05-03T02:15:48.994Z,7.90
2019-05-03T02:18:22.274Z,8.01
2019-05-03T02:20:53.831Z,7.85
2019-05-03T02:23:24.875Z,7.91
2019-05-03T02:25:59.214Z,7.92
2019-05-03T02:28:30.232Z,7.93
2019-05-03T02:31:03.473Z,7.98
2019-05-03T02:33:35.490Z,7.99
2019-05-03T02:36:07.460Z,7.98
2019-05-03T02:38:39.522Z,7.90
2019-05-03T02:41:13.439Z,7.89
2019-05-03T02:43:47.673Z,7.84
2019-05-03T02:46:31.410Z,7.82
2019-05-03T02:49:15.856Z,7.78
2019-05-03T02:51:47.816Z,7.85
2019-05-03T02:54:19.370Z,7.64
2019-05-03T02:56:51.169Z,7.73
2019-05-03T02:59:26.141Z,7.71
2019-05-03T03:01:56.576Z,7.69
2019-05-03T03:04:28.481Z,7.62
2019-05-03T03:07:00.460Z,7.52
2019-05-03T03:09:32.251Z,7.48
2019-05-03T03:12:06.042Z,7.42
2019-05-03T03:14:37.833Z,7.43
2019-05-03T03:17:10.500Z,7.35
2019-05-03T03:19:46.193Z,7.45
2019-05-03T03:22:19.182Z,7.44
2019-05-03T03:24:55.883Z,7.44
2019-05-03T03:27:28.637Z,7.35
2019-05-03T03:30:28.782Z,7.15
2019-05-03T03:32:59.749Z,7.12
2019-05-03T03:35:38.233Z,7.07
2019-05-03T03:38:08.877Z,7.04
2019-05-03T03:40:40.609Z,7.20
2019-05-03T03:43:12.142Z,6.98
2019-05-03T03:45:45.511Z,7.15
2019-05-03T03:48:20.017Z,6.97
2019-05-03T03:50:52.558Z,7.03
2019-05-03T03:53:26.415Z,6.87
2019-05-03T03:55:58.578Z,6.89
2019-05-03T03:58:30.527Z,7.05
2019-05-03T04:01:03.110Z,6.83
2019-05-03T04:03:36.172Z,6.84
2019-05-03T04:06:07.965Z,6.72
2019-05-03T04:08:40.047Z,6.82
2019-05-03T04:11:12.082Z,6.75
2019-05-03T04:13:45.533Z,6.92
2019-05-03T04:16:27.033Z,6.83
2019-05-03T04:19:17.429Z,6.81
2019-05-03T04:21:48.344Z,6.90
2019-05-03T04:24:19.996Z,7.08
2019-05-03T04:26:56.296Z,7.08
2019-05-03T04:29:35.938Z,6.79
2019-05-03T04:32:08.095Z,6.73
2019-05-03T04:34:39.939Z,6.52
2019-05-03T04:37:11.516Z,6.69
2019-05-03T04:39:45.337Z,6.74
2019-05-03T04:42:16.870Z,6.67
2019-05-03T04:44:49.938Z,6.61
2019-05-03T04:47:21.653Z,6.53
2019-05-03T04:49:55.533Z,6.87
2019-05-03T04:52:27.000Z,6.61
2019-05-03T04:54:59.751Z,6.67
2019-05-03T04:57:42.203Z,6.95
2019-05-03T05:00:10.834Z,6.94
2019-05-03T05:02:39.690Z,7.03
2019-05-03T05:05:11.513Z,6.84
2019-05-03T05:07:45.408Z,6.79
2019-05-03T05:10:16.115Z,6.84
2019-05-03T05:12:48.966Z,6.81
2019-05-03T05:15:20.896Z,6.89
2019-05-03T05:18:07.693Z,7.12
2019-05-03T05:20:57.077Z,7.22
2019-05-03T05:23:28.634Z,7.02
2019-05-03T05:26:10.552Z,7.18
2019-05-03T05:28:50.210Z,7.23
2019-05-03T05:31:21.712Z,7.41
2019-05-03T05:33:54.510Z,7.48
2019-05-03T05:36:27.525Z,7.21
2019-05-03T05:38:59.390Z,7.43
2019-05-03T05:41:30.895Z,7.44
2019-05-03T05:44:02.660Z,7.49
2019-05-03T05:46:41.100Z,7.51
2019-05-03T05:49:14.793Z,7.95
2019-05-03T05:51:47.676Z,8.01
2019-05-03T05:54:19.614Z,7.71
2019-05-03T05:57:01.563Z,7.77
2019-05-03T05:59:48.139Z,7.81
2019-05-03T06:02:20.493Z,7.82
2019-05-03T06:04:54.354Z,7.98
2019-05-03T06:07:40.185Z,7.83
2019-05-03T06:10:30.583Z,7.92
2019-05-03T06:13:10.667Z,7.69
2019-05-03T06:15:48.203Z,7.81
2019-05-03T06:18:25.050Z,8.04
2019-05-03T06:21:09.117Z,8.12
2019-05-03T06:23:45.232Z,8.12
2019-05-03T06:26:37.072Z,8.04
2019-05-03T06:29:08.794Z,7.89
2019-05-03T06:31:49.975Z,7.97
2019-05-03T06:34:21.942Z,7.77
2019-05-03T06:36:55.327Z,7.92
2019-05-03T06:39:27.286Z,8.18
2019-05-03T06:41:59.182Z,8.25
2019-05-03T06:44:30.512Z,8.27
2019-05-03T06:47:08.768Z,8.46
2019-05-03T06:49:39.193Z,8.56
2019-05-03T06:52:09.052Z,8.78
2019-05-03T06:54:40.619Z,9.15
2019-05-03T06:57:14.822Z,9.26
2019-05-03T06:59:51.535Z,9.52
2019-05-03T07:02:48.335Z,9.34
2019-05-03T07:05:39.054Z,8.98
2019-05-03T07:08:28.399Z,9.54
2019-05-03T07:11:00.945Z,9.68
2019-05-03T07:13:34.556Z,9.04
2019-05-03T07:16:06.535Z,9.75
2019-05-03T07:18:37.751Z,9.00
2019-05-03T07:21:09.773Z,8.70
2019-05-03T07:23:41.404Z,9.55
2019-05-03T07:26:14.927Z,9.54
2019-05-03T07:28:49.388Z,9.60
2019-05-03T07:31:19.149Z,9.76
2019-05-03T07:33:52.011Z,9.83
2019-05-03T07:36:25.958Z,9.22
2019-05-03T07:38:56.514Z,9.38
2019-05-03T07:41:28.743Z,10.21
2019-05-03T07:44:00.277Z,10.47
2019-05-03T07:46:32.154Z,9.93
2019-05-03T07:49:05.071Z,9.00
2019-05-03T07:51:37.113Z,9.44
2019-05-03T07:54:08.435Z,9.31
2019-05-03T07:56:47.511Z,9.50
2019-05-03T07:59:19.065Z,9.92
2019-05-03T08:01:54.614Z,9.62
2019-05-03T08:04:26.134Z,10.38
2019-05-03T08:06:58.076Z,10.77
2019-05-03T08:09:29.075Z,11.26
2019-05-03T08:12:01.236Z,11.05
2019-05-03T08:14:32.925Z,10.31
2019-05-03T08:17:05.039Z,9.81
2019-05-03T08:19:36.305Z,10.18
2019-05-03T08:22:07.895Z,9.71
2019-05-03T08:24:39.545Z,9.89
2019-05-03T08:27:10.758Z,10.68
2019-05-03T08:29:42.699Z,11.25
2019-05-03T08:32:29.857Z,10.98
2019-05-03T08:35:18.687Z,10.66
2019-05-03T08:37:54.539Z,10.28
2019-05-03T08:40:27.886Z,10.35
2019-05-03T08:42:59.448Z,10.51
2019-05-03T08:45:31.107Z,10.82
2019-05-03T08:48:02.744Z,10.27
2019-05-03T08:50:34.884Z,10.49
2019-05-03T08:53:07.199Z,10.18
2019-05-03T08:55:39.082Z,10.68
2019-05-03T08:58:10.978Z,10.62
2019-05-03T09:00:45.467Z,10.89
2019-05-03T09:03:17.040Z,11.12
2019-05-03T09:05:49.234Z,11.02
2019-05-03T09:08:21.019Z,11.38
2019-05-03T09:11:05.066Z,12.10
2019-05-03T09:13:48.472Z,11.66
2019-05-03T09:16:20.365Z,11.11
2019-05-03T09:18:52.286Z,11.13
2019-05-03T09:21:25.310Z,10.82
2019-05-03T09:23:56.168Z,10.77
2019-05-03T09:26:29.528Z,11.09
2019-05-03T09:29:01.475Z,10.78
2019-05-03T09:31:32.848Z,10.83
2019-05-03T09:34:07.960Z,10.42
2019-05-03T09:36:37.477Z,10.68
2019-05-03T09:39:09.229Z,11.61
2019-05-03T09:41:40.974Z,11.92
2019-05-03T09:44:14.983Z,12.49
2019-05-03T09:46:46.472Z,10.97
2019-05-03T09:49:18.111Z,11.15
2019-05-03T09:51:49.770Z,11.31
2019-05-03T09:54:29.204Z,10.84
2019-05-03T09:57:00.827Z,10.86
2019-05-03T09:59:32.694Z,10.93
2019-05-03T10:02:04.970Z,10.95
2019-05-03T10:04:36.901Z,11.07
2019-05-03T10:07:08.709Z,10.59
2019-05-03T10:09:40.825Z,10.37
2019-05-03T10:12:16.935Z,10.33
2019-05-03T10:14:48.267Z,10.71
2019-05-03T10:17:51.569Z,10.65
2019-05-03T10:20:25.324Z,10.29
2019-05-03T10:23:00.459Z,10.71
2019-05-03T10:25:32.661Z,10.57
2019-05-03T10:28:05.741Z,10.60
2019-05-03T10:30:37.414Z,10.81
2019-05-03T10:33:16.942Z,10.83
2019-05-03T10:35:48.437Z,10.88
2019-05-03T10:38:20.531Z,10.83
2019-05-03T10:40:54.870Z,10.85
2019-05-03T10:43:25.739Z,11.12
2019-05-03T10:45:57.278Z,10.90
2019-05-03T10:48:28.607Z,11.52
2019-05-03T10:51:00.491Z,11.41
2019-05-03T10:53:36.454Z,10.81
2019-05-03T10:56:26.808Z,10.82
2019-05-03T10:59:00.923Z,10.51
2019-05-03T11:01:39.819Z,10.25
2019-05-03T11:04:11.934Z,10.32
2019-05-03T11:06:45.526Z,10.65
2019-05-03T11:09:17.625Z,10.37
2019-05-03T11:11:49.455Z,10.36
2019-05-03T11:14:21.631Z,10.57
2019-05-03T11:16:55.066Z,11.15
2019-05-03T11:19:26.822Z,11.12
2019-05-03T11:21:58.582Z,11.80
2019-05-03T11:24:30.342Z,11.74
2019-05-03T11:27:04.794Z,12.65
2019-05-03T11:29:36.325Z,12.96
2019-05-03T11:32:25.577Z,12.95
2019-05-03T11:35:11.825Z,12.41
2019-05-03T11:37:50.460Z,12.12
2019-05-03T11:40:21.808Z,11.65
2019-05-03T11:42:55.370Z,11.66
2019-05-03T11:45:27.097Z,12.07
2019-05-03T11:47:58.607Z,12.12
2019-05-03T11:50:30.165Z,12.75
2019-05-03T11:53:01.941Z,12.54
2019-05-03T11:55:37.222Z,12.68
2019-05-03T11:58:27.578Z,12.36
2019-05-03T12:01:15.943Z,12.34
2019-05-03T12:03:45.284Z,12.12
2019-05-03T12:06:17.189Z,12.30
2019-05-03T12:08:48.715Z,11.98
2019-05-03T12:11:20.240Z,12.42
2019-05-03T12:14:10.563Z,11.59
2019-05-03T12:19:24.986Z,11.75
2019-05-03T12:21:53.733Z,11.31
2019-05-03T12:24:26.662Z,11.15
2019-05-03T12:26:58.954Z,10.75
2019-05-03T12:29:30.139Z,10.99
2019-05-03T12:32:05.114Z,10.77
2019-05-03T12:34:36.451Z,10.74
2019-05-03T12:37:08.264Z,10.97
2019-05-03T12:39:40.272Z,10.82
2019-05-03T12:42:11.882Z,10.94
2019-05-03T12:44:43.350Z,11.04
2019-05-03T12:47:14.731Z,11.19
2019-05-03T12:49:46.211Z,11.40
2019-05-03T12:52:19.133Z,11.33
2019-05-03T12:54:51.398Z,11.26
2019-05-03T12:57:24.815Z,11.14
2019-05-03T13:00:09.539Z,11.26
2019-05-03T13:02:55.076Z,10.99
2019-05-03T13:05:26.687Z,10.77
2019-05-03T13:08:15.974Z,11.01
2019-05-03T13:10:48.013Z,10.93
2019-05-03T13:13:19.536Z,10.86
2019-05-03T13:15:51.345Z,10.68
2019-05-03T13:18:25.106Z,10.91
2019-05-03T13:20:57.600Z,10.91
2019-05-03T13:23:29.559Z,10.83
2019-05-03T13:26:01.088Z,10.70
2019-05-03T13:28:33.132Z,10.96
2019-05-03T13:31:06.064Z,11.08
2019-05-03T13:33:37.938Z,11.08
2019-05-03T13:36:09.915Z,11.19
2019-05-03T13:38:41.534Z,10.84
2019-05-03T13:41:13.371Z,10.93
2019-05-03T13:43:45.479Z,11.01
2019-05-03T13:46:17.501Z,11.74
2019-05-03T13:48:49.320Z,12.18
2019-05-03T13:51:20.759Z,12.52
2019-05-03T13:53:52.359Z,12.05
2019-05-03T13:56:24.685Z,11.59
2019-05-03T13:58:56.580Z,11.36
2019-05-03T14:01:28.443Z,11.67
2019-05-03T14:04:00.051Z,11.78
2019-05-03T14:06:33.701Z,11.60
2019-05-03T14:09:06.727Z,11.91
2019-05-03T14:11:38.674Z,11.65
2019-05-03T14:14:09.953Z,11.59
2019-05-03T14:16:41.498Z,11.36
2019-05-03T14:19:18.234Z,11.45
2019-05-03T14:21:52.194Z,10.94
2019-05-03T14:24:24.524Z,11.01
2019-05-03T14:26:56.518Z,11.00
2019-05-03T14:29:28.297Z,10.84
2019-05-03T14:32:00.062Z,10.91
2019-05-03T14:34:31.333Z,10.92
2019-05-03T14:37:04.577Z,11.04
2019-05-03T14:39:36.309Z,10.94
2019-05-03T14:42:08.145Z,10.92
2019-05-03T14:44:39.862Z,11.08
2019-05-03T14:47:11.672Z,11.18
2019-05-03T14:49:43.442Z,11.18
2019-05-03T14:52:15.388Z,11.14
2019-05-03T14:54:48.682Z,10.83
2019-05-03T14:57:25.814Z,10.94
2019-05-03T15:00:17.364Z,11.08
2019-05-03T15:03:20.166Z,11.64
2019-05-03T15:05:51.886Z,11.19
2019-05-03T15:08:25.519Z,11.33
2019-05-03T15:10:57.705Z,11.13
2019-05-03T15:13:29.372Z,11.02
2019-05-03T15:16:00.387Z,11.01
2019-05-03T15:18:31.656Z,11.07
2019-05-03T15:21:05.436Z,10.89
2019-05-03T15:23:37.219Z,10.84
2019-05-03T15:26:08.908Z,10.66
2019-05-03T15:28:41.315Z,10.69
2019-05-03T15:31:12.874Z,10.86
2019-05-03T15:33:45.154Z,10.93
2019-05-03T15:36:17.067Z,10.75
2019-05-03T15:38:48.866Z,10.69
2019-05-03T15:41:20.419Z,10.77
2019-05-03T15:44:12.349Z,10.57
2019-05-03T15:46:52.204Z,10.59
2019-05-03T15:49:27.126Z,10.66
2019-05-03T15:51:58.199Z,10.77
2019-05-03T15:54:30.131Z,10.75
2019-05-03T15:57:01.321Z,10.54
2019-05-03T15:59:33.128Z,10.47
2019-05-03T16:02:04.716Z,10.35
2019-05-03T16:04:36.229Z,10.46
2019-05-03T16:07:07.891Z,10.45
2019-05-03T16:09:39.476Z,10.59
2019-05-03T16:12:10.992Z,10.51
2019-05-03T16:14:44.418Z,10.40
2019-05-03T16:17:16.468Z,10.42
2019-05-03T16:19:48.156Z,10.53
2019-05-03T16:22:20.305Z,10.42
2019-05-03T16:24:52.153Z,10.48
2019-05-03T16:27:49.204Z,10.53
2019-05-03T16:30:48.927Z,10.34
2019-05-03T16:33:27.219Z,10.65
2019-05-03T16:35:54.899Z,10.46
2019-05-03T16:38:26.612Z,10.26
2019-05-03T16:40:58.597Z,10.37
2019-05-03T16:43:29.830Z,10.36
2019-05-03T16:46:01.417Z,10.30
2019-05-03T16:48:35.186Z,10.32
2019-05-03T16:51:06.539Z,10.44
2019-05-03T16:53:38.104Z,10.68
2019-05-03T16:56:09.366Z,10.67
2019-05-03T16:58:40.901Z,10.74
2019-05-03T17:01:15.670Z,10.68
2019-05-03T17:03:49.702Z,10.65
2019-05-03T17:06:34.987Z,10.58
2019-05-03T17:09:16.690Z,10.66
2019-05-03T17:12:07.291Z,10.49
2019-05-03T17:14:39.393Z,10.50
2019-05-03T17:17:11.343Z,10.58
2019-05-03T17:19:44.674Z,10.75
2019-05-03T17:22:17.562Z,10.49
2019-05-03T17:24:51.655Z,10.60
2019-05-03T17:27:24.861Z,10.39
2019-05-03T17:29:56.773Z,10.55
2019-05-03T17:32:28.633Z,10.39
2019-05-03T17:34:59.576Z,10.32
2019-05-03T17:37:31.169Z,10.32
2019-05-03T17:40:17.350Z,10.38
2019-05-03T17:42:59.715Z,10.41
2019-05-03T17:45:38.100Z,10.35
2019-05-03T17:48:09.082Z,10.28
2019-05-03T17:50:40.723Z,10.18
2019-05-03T17:53:28.258Z,10.40
2019-05-03T17:56:16.434Z,10.49
2019-05-03T17:58:51.933Z,10.50
2019-05-03T18:01:46.035Z,10.47
2019-05-03T18:04:45.713Z,10.53
2019-05-03T18:07:26.788Z,10.35
2019-05-03T18:09:58.883Z,10.49
2019-05-03T18:12:30.950Z,10.52
2019-05-03T18:15:02.690Z,10.42
2019-05-03T18:17:35.284Z,10.17
2019-05-03T18:20:06.906Z,10.26
2019-05-03T18:22:38.708Z,10.21
2019-05-03T18:25:10.356Z,10.22
2019-05-03T18:27:44.480Z,10.37
2019-05-03T18:30:16.195Z,10.11
2019-05-03T18:32:48.263Z,10.18
2019-05-03T18:35:19.737Z,10.17
2019-05-03T18:38:09.541Z,10.01
2019-05-03T18:40:41.670Z,9.94
2019-05-03T18:43:19.676Z,9.91
2019-05-03T18:46:22.676Z,9.93
2019-05-03T18:48:55.185Z,9.93
2019-05-03T18:51:27.975Z,9.71
2019-05-03T18:54:00.147Z,9.76
2019-05-03T18:56:31.840Z,9.76
2019-05-03T18:59:05.114Z,9.82
2019-05-03T19:01:36.812Z,9.71
2019-05-03T19:04:34.744Z,9.72
2019-05-03T19:07:07.061Z,9.67
2019-05-03T19:09:50.147Z,9.61
2019-05-03T19:12:38.725Z,9.47
2019-05-03T19:15:10.991Z,9.62
2019-05-03T19:18:01.612Z,9.62
2019-05-03T19:20:35.279Z,9.51
2019-05-03T19:23:06.630Z,9.64
2019-05-03T19:25:46.850Z,9.54
2019-05-03T19:28:12.262Z,9.57
2019-05-03T19:30:45.731Z,9.63
2019-05-03T19:33:17.297Z,9.61
2019-05-03T19:35:48.512Z,9.56
2019-05-03T19:38:20.052Z,9.43
2019-05-03T19:40:51.716Z,9.52
2019-05-03T19:43:24.414Z,9.53
2019-05-03T19:45:56.541Z,9.54
2019-05-03T19:48:29.254Z,9.54
2019-05-03T19:51:01.429Z,9.55
2019-05-03T19:53:52.304Z,9.45
2019-05-03T19:56:25.602Z,9.51
2019-05-03T19:59:01.723Z,9.42
2019-05-03T20:01:55.789Z,9.43
2019-05-03T20:04:35.259Z,9.33
2019-05-03T20:07:25.177Z,9.30
2019-05-03T20:09:56.997Z,9.27
2019-05-03T20:12:28.880Z,9.31
2019-05-03T20:15:00.742Z,9.18
2019-05-03T20:17:34.568Z,9.21
2019-05-03T20:20:06.501Z,9.36
2019-05-03T20:22:39.045Z,9.44
2019-05-03T20:25:10.535Z,9.22
2019-05-03T20:27:44.375Z,9.16
2019-05-03T20:30:15.768Z,9.17
2019-05-03T20:32:47.695Z,9.23
2019-05-03T20:35:19.819Z,9.19
2019-05-03T20:37:52.367Z,9.11
2019-05-03T20:40:25.585Z,9.22
2019-05-03T20:43:28.564Z,9.01
2019-05-03T20:46:33.825Z,9.03
2019-05-03T20:49:07.781Z,8.92
2019-05-03T20:51:39.717Z,8.88
2019-05-03T20:54:12.043Z,9.05
2019-05-03T20:56:45.731Z,8.82
2019-05-03T20:59:17.682Z,8.90
2019-05-03T21:01:49.481Z,8.89
2019-05-03T21:04:21.754Z,8.75
2019-05-03T21:06:55.185Z,8.89
2019-05-03T21:09:27.404Z,8.63
2019-05-03T21:11:58.920Z,8.55
2019-05-03T21:14:31.037Z,8.62
2019-05-03T21:17:27.233Z,8.48
2019-05-03T21:20:03.657Z,8.52
2019-05-03T21:22:42.028Z,8.55
2019-05-03T21:25:18.733Z,8.53
2019-05-03T21:27:50.726Z,8.43
2019-05-03T21:30:22.015Z,8.36
2019-05-03T21:32:54.885Z,8.47
2019-05-03T21:35:40.827Z,8.44
2019-05-03T21:38:01.343Z,8.31
2019-05-03T21:40:34.739Z,8.29
2019-05-03T21:43:06.171Z,8.40
2019-05-03T21:45:45.197Z,8.36
2019-05-03T21:48:20.277Z,8.31
2019-05-03T21:50:52.440Z,8.06
2019-05-03T21:53:25.140Z,8.20
2019-05-03T21:55:57.990Z,8.19
2019-05-03T21:58:29.889Z,8.17
2019-05-03T22:01:05.768Z,7.98
2019-05-03T22:03:37.490Z,8.16
2019-05-03T22:06:09.420Z,8.20
2019-05-03T22:08:40.891Z,8.19
2019-05-03T22:11:14.678Z,8.12
2019-05-03T22:13:48.367Z,8.15
2019-05-03T22:16:31.146Z,7.85
2019-05-03T22:19:02.678Z,8.04
2019-05-03T22:21:50.498Z,8.01
2019-05-03T22:24:36.054Z,8.04
2019-05-03T22:27:12.565Z,8.13
2019-05-03T22:29:44.750Z,8.00
2019-05-03T22:32:16.507Z,7.94
2019-05-03T22:34:47.764Z,7.99
2019-05-03T22:37:19.812Z,7.98
2019-05-03T22:39:51.531Z,7.85
2019-05-03T22:42:25.262Z,7.92
2019-05-03T22:44:56.991Z,8.04
2019-05-03T22:47:28.839Z,7.75
2019-05-03T22:50:02.811Z,7.93
2019-05-03T22:52:35.097Z,8.11
2019-05-03T22:55:06.903Z,8.10
2019-05-03T22:57:38.283Z,7.97
2019-05-03T23:00:09.692Z,7.87
2019-05-03T23:02:45.427Z,7.97
2019-05-03T23:05:16.584Z,8.10
2019-05-03T23:07:48.230Z,7.97
2019-05-03T23:10:19.582Z,8.05
2019-05-03T23:12:50.864Z,7.80
2019-05-03T23:15:24.383Z,7.69
2019-05-03T23:17:57.263Z,7.44
2019-05-03T23:20:38.716Z,7.41
2019-05-03T23:23:29.378Z,7.54
2019-05-03T23:26:00.803Z,7.56
2019-05-03T23:28:32.857Z,7.43
2019-05-03T23:31:05.367Z,7.46
2019-05-03T23:33:36.629Z,7.37
2019-05-03T23:36:08.994Z,7.29
2019-05-03T23:38:41.025Z,7.38
2019-05-03T23:41:15.111Z,7.34
2019-05-03T23:43:46.813Z,7.33
2019-05-03T23:46:21.672Z,7.13
2019-05-03T23:48:53.219Z,7.10
2019-05-03T23:51:44.303Z,7.24
2019-05-03T23:54:15.672Z,7.24
2019-05-03T23:56:47.435Z,7.19
2019-05-03T23:59:19.612Z,7.00
